Leon — D5BH4 — position and weather

sailwx.info

Track history (hours):
 
Tides and Currents Weather Stations Pressure Air Temp Water Temp Dewpoint Dewpoint Depression Visibility Wind Speed Wind Dir Waves Ship Positions

Leon

Last reported at 2015-Jun-30 12:25 UTC. Time now 2015-Jun-30 12:42 UTC.
Position N 49°46' W 000°12'.

Length 95 m; draft 5.3 m.

Type: Ship (hazmat cat C). MMSI: 636015519.

Date/timePositionNaut miles runAvg speedWind from/ knotsBaromVisibWave heightAir tempDewpointWater temp
2015-Jun-30 12:25N 49°46' W 000°12'5 6.4
2015-Jun-30 11:33N 49°41' W 000°15'2 2.2
2015-Jun-30 10:33N 49°39' W 000°13'10 9.8
2015-Jun-30 09:33N 49°31' W 000°07'1010.1
2015-Jun-30 08:33N 49°28' E 000°08'3 2.5
2015-Jun-30 07:32N 49°29' E 000°12'0 0.0
2015-Jun-30 06:32N 49°29' E 000°12'0 0.0
2015-Jun-30 05:32N 49°29' E 000°12'0 0.0
2015-Jun-30 04:32N 49°29' E 000°12'0 0.0
2015-Jun-30 03:32N 49°29' E 000°12'0 0.0
2015-Jun-30 02:32N 49°29' E 000°12'0 0.0
2015-Jun-30 01:32N 49°29' E 000°12'0 0.0
2015-Jun-30 00:32N 49°29' E 000°12'0 0.0
2015-Jun-29 23:32N 49°29' E 000°12'0 0.0
2015-Jun-29 22:32N 49°29' E 000°12'0 0.0
2015-Jun-29 21:32N 49°29' E 000°12'0 0.0
2015-Jun-29 20:32N 49°29' E 000°12'0 0.0
2015-Jun-29 19:32N 49°29' E 000°12'0 0.0
2015-Jun-29 18:32N 49°29' E 000°12'0 0.0
2015-Jun-29 17:32N 49°29' E 000°12'0 0.0
2015-Jun-29 16:32N 49°29' E 000°12'0 0.0
2015-Jun-29 15:32N 49°29' E 000°12'0 0.0
2015-Jun-29 14:29N 49°29' E 000°12'0 0.0
2015-Jun-29 13:32N 49°29' E 000°12'0 0.0
2015-Jun-29 12:29N 49°29' E 000°12'0 0.0
2015-Jun-29 11:32N 49°29' E 000°12'0 0.0
2015-Jun-29 10:29N 49°29' E 000°12'0 0.0
2015-Jun-29 09:32N 49°29' E 000°12'0 0.0
2015-Jun-29 08:32N 49°29' E 000°12'0 0.0
2015-Jun-29 07:32N 49°29' E 000°12'0 0.0
2015-Jun-29 06:32N 49°29' E 000°12'0 0.0
2015-Jun-29 05:32N 49°29' E 000°12'1 1.2
2015-Jun-29 04:33N 49°29' E 000°11'4 3.9
2015-Jun-29 03:33N 49°29' E 000°05'10 9.8
2015-Jun-29 02:33N 49°32' W 000°10'2 2.4
2015-Jun-29 01:33N 49°34' W 000°09'0 0.0
2015-Jun-29 00:33N 49°34' W 000°09'0 0.0
2015-Jun-28 23:33N 49°34' W 000°09'0 0.0
2015-Jun-28 22:33N 49°34' W 000°09'0 0.1
2015-Jun-28 21:33N 49°34' W 000°09'0 0.0
2015-Jun-28 20:33N 49°34' W 000°09'0 0.0
2015-Jun-28 19:33N 49°34' W 000°09'0 0.0
2015-Jun-28 18:33N 49°34' W 000°09'0 0.0
2015-Jun-28 17:33N 49°34' W 000°09'0 0.0
2015-Jun-28 16:33N 49°34' W 000°09'6 6.0
2015-Jun-28 15:33N 49°40' W 000°10'1111.3
2015-Jun-28 14:32N 49°52' W 000°11'46 9.2
2015-Jun-28 09:32N 50°33' E 000°21'1010.1
2015-Jun-28 08:31N 50°36' E 000°37'9 9.6
2015-Jun-28 07:33N 50°40' E 000°49'9 9.4
2015-Jun-28 06:33N 50°46' E 001°01'10 9.9
2015-Jun-28 05:33N 50°52' E 001°14'1111.0
2015-Jun-28 04:33N 50°60' E 001°26'1212.0
2015-Jun-28 03:33N 51°08' E 001°39'1111.3
2015-Jun-28 02:33N 51°17' E 001°50'1010.3
2015-Jun-28 01:33N 51°26' E 001°59'10 8.3
2015-Jun-28 00:21N 51°34' E 002°09'65 8.3
2015-Jun-27 16:33N 52°06' E 003°39'1010.3
2015-Jun-27 15:33N 52°03' E 003°55'10 9.8
2015-Jun-27 14:33N 51°57' E 004°08'2 1.5
2015-Jun-27 13:28N 51°56' E 004°10'0 0.0
2015-Jun-27 12:31N 51°56' E 004°10'0 0.0
2015-Jun-27 11:31N 51°56' E 004°10'0 0.0
2015-Jun-27 10:31N 51°56' E 004°10'0 0.0
2015-Jun-27 09:31N 51°56' E 004°10'0 0.0
2015-Jun-27 08:31N 51°56' E 004°10'0 0.0
2015-Jun-27 07:16N 51°56' E 004°10'0 0.0
2015-Jun-27 06:31N 51°56' E 004°10'0 0.0
2015-Jun-27 05:28N 51°56' E 004°10'0 0.0
2015-Jun-27 04:31N 51°56' E 004°10'0 0.0
2015-Jun-27 03:31N 51°56' E 004°10'0 0.0
2015-Jun-27 02:31N 51°56' E 004°10'0 0.0
2015-Jun-27 01:31N 51°56' E 004°10'0 0.0
2015-Jun-27 00:31N 51°56' E 004°10'0 0.0
2015-Jun-26 23:31N 51°56' E 004°10'0 0.0
2015-Jun-26 22:31N 51°56' E 004°10'0 0.0
2015-Jun-26 21:28N 51°56' E 004°10'0 0.0
2015-Jun-26 20:31N 51°56' E 004°10'0 0.0
2015-Jun-26 19:31N 51°56' E 004°10'0 0.0
2015-Jun-26 18:31N 51°56' E 004°10'0 0.0
2015-Jun-26 17:28N 51°56' E 004°10'0 0.0
2015-Jun-26 16:22N 51°56' E 004°10'1 1.1
2015-Jun-26 15:34N 51°57' E 004°09'8 8.4
2015-Jun-26 14:34N 51°60' E 003°56'8 8.2
2015-Jun-26 13:34N 51°57' E 003°44'0 0.3
2015-Jun-26 12:31N 51°56' E 003°44'0 0.0
2015-Jun-26 11:31N 51°56' E 003°44'0 0.0
2015-Jun-26 10:25N 51°56' E 003°44'0 0.0
2015-Jun-26 09:25N 51°56' E 003°44'0 0.0
2015-Jun-26 08:28N 51°56' E 003°44'0 0.0
2015-Jun-26 07:16N 51°56' E 003°44'0 0.0
2015-Jun-26 06:13N 51°56' E 003°44'0 0.1
2015-Jun-26 05:28N 51°56' E 003°44'0 0.0
2015-Jun-26 04:31N 51°56' E 003°44'0 0.0
2015-Jun-26 03:31N 51°56' E 003°44'0 0.0
2015-Jun-26 02:31N 51°56' E 003°44'0 0.0
2015-Jun-26 01:31N 51°56' E 003°44'0 0.1
2015-Jun-26 00:28N 51°56' E 003°44'0 0.0
2015-Jun-25 23:28N 51°56' E 003°44'0 0.0
2015-Jun-25 22:22N 51°56' E 003°44'0 0.0
2015-Jun-25 21:28N 51°56' E 003°44'0 0.0
2015-Jun-25 20:31N 51°56' E 003°44'0 0.0
2015-Jun-25 19:28N 51°56' E 003°44'0 0.0
2015-Jun-25 18:22N 51°56' E 003°44'0 0.1
2015-Jun-25 17:04N 51°56' E 003°44'0 0.0
2015-Jun-25 16:31N 51°56' E 003°44'0 0.0
2015-Jun-25 15:28N 51°56' E 003°44'0 0.0
2015-Jun-25 14:31N 51°56' E 003°44'0 0.0
2015-Jun-25 13:28N 51°56' E 003°44'0 0.1
2015-Jun-25 12:28N 51°56' E 003°44'0 0.0
2015-Jun-25 06:22N 51°56' E 003°44'0 0.0
2015-Jun-25 04:31N 51°56' E 003°44'0 0.0
2015-Jun-25 03:22N 51°56' E 003°44'6 6.8
2015-Jun-25 02:28N 51°56' E 003°34'8 8.3
2015-Jun-25 01:32N 51°53' E 003°22'18 9.2
2015-Jun-24 23:31N 51°35' E 003°24'1111.5
2015-Jun-24 22:34N 51°26' E 003°35'1212.0
2015-Jun-24 21:33N 51°23' E 003°54'11 9.0
2015-Jun-24 20:21N 51°23' E 004°12'4 4.2
2015-Jun-24 19:19N 51°21' E 004°17'0 0.4
2015-Jun-24 18:29N 51°21' E 004°18'6 6.2
2015-Jun-24 17:32N 51°15' E 004°22'0 0.1
2015-Jun-24 16:30N 51°15' E 004°22'0 0.0
2015-Jun-24 15:33N 51°15' E 004°22'0 0.0
2015-Jun-24 14:33N 51°15' E 004°22'0 0.0
2015-Jun-24 13:33N 51°15' E 004°22'0 0.0
2015-Jun-24 12:33N 51°15' E 004°22'0 0.0
2015-Jun-24 11:33N 51°15' E 004°22'0 0.0
2015-Jun-24 10:33N 51°15' E 004°22'0 0.0
2015-Jun-24 09:33N 51°15' E 004°22'0 0.0
2015-Jun-24 08:33N 51°15' E 004°22'0 0.0
2015-Jun-24 07:33N 51°15' E 004°22'0 0.0
2015-Jun-24 06:33N 51°15' E 004°22'0 0.0
2015-Jun-24 05:33N 51°15' E 004°22'0 0.0
2015-Jun-24 04:33N 51°15' E 004°22'0 0.0
2015-Jun-24 03:33N 51°15' E 004°22'0 0.0
2015-Jun-24 02:33N 51°15' E 004°22'0 0.0
2015-Jun-24 01:33N 51°15' E 004°22'0 0.0
2015-Jun-24 00:33N 51°15' E 004°22'0 0.0
2015-Jun-23 23:33N 51°15' E 004°22'0 0.0
2015-Jun-23 22:33N 51°15' E 004°22'0 0.0
2015-Jun-23 21:33N 51°15' E 004°22'0 0.0
2015-Jun-23 20:33N 51°15' E 004°22'0 0.0
2015-Jun-23 19:30N 51°15' E 004°22'0 0.0
2015-Jun-23 19:00N 51°15' E 004°22'136 3.9
2015-Jun-22 08:18N 53°31' E 004°47'8 8.9
2015-Jun-22 07:20N 53°34' E 005°00'8 9.8
2015-Jun-22 06:33N 53°36' E 005°12'1010.5
2015-Jun-22 05:33N 53°40' E 005°29'1110.8
2015-Jun-22 04:33N 53°43' E 005°46'57 9.2
2015-Jun-21 22:26N 53°58' E 007°19'8 9.2
2015-Jun-21 21:33N 54°00' E 007°32'10 9.8
2015-Jun-21 20:33N 54°02' E 007°48'1110.6
2015-Jun-21 19:33N 54°01' E 008°06'1211.6
2015-Jun-21 18:33N 53°59' E 008°26'1212.1
2015-Jun-21 17:33N 53°53' E 008°43'9 9.5
2015-Jun-21 16:33N 53°51' E 008°59'6 6.1
2015-Jun-21 15:33N 53°54' E 009°09'1 1.2
2015-Jun-21 14:33N 53°54' E 009°10'8 7.9
2015-Jun-21 13:33N 54°01' E 009°18'17 5.2
2015-Jun-21 10:24N 54°14' E 009°36'6 7.6
2015-Jun-21 09:33N 54°19' E 009°43'7 7.1
2015-Jun-21 08:33N 54°21' E 009°54'8 8.0
2015-Jun-21 07:33N 54°22' E 010°08'1 1.2
2015-Jun-21 06:33N 54°22' E 010°10'3 3.0
2015-Jun-21 05:33N 54°24' E 010°12'10 9.7
2015-Jun-21 04:33N 54°32' E 010°23'10 9.9
2015-Jun-21 03:32N 54°35' E 010°40'19 9.6
2015-Jun-21 01:33N 54°35' E 011°12'10 9.7
2015-Jun-21 00:33N 54°31' E 011°27'10 9.6
2015-Jun-20 23:33N 54°28' E 011°43'9 9.5
2015-Jun-20 22:33N 54°27' E 011°59'  
Track history (hours):
 
Tides and Currents Weather Stations Pressure Air Temp Water Temp Dewpoint Dewpoint Depression Visibility Wind Speed Wind Dir Waves Ship Positions

Leon

Last reported at 2015-Jun-30 12:25 UTC. Time now 2015-Jun-30 12:42 UTC.
Position N 49°46' W 000°12'.

Length 95 m; draft 5.3 m.

Type: Ship (hazmat cat C). MMSI: 636015519.

Date/timePositionNaut miles runAvg speedWind from/ knotsBaromVisibWave heightAir tempDewpointWater temp
2015-Jun-30 12:25N 49°46' W 000°12'5 6.4
2015-Jun-30 11:33N 49°41' W 000°15'2 2.2
2015-Jun-30 10:33N 49°39' W 000°13'10 9.8
2015-Jun-30 09:33N 49°31' W 000°07'1010.1
2015-Jun-30 08:33N 49°28' E 000°08'3 2.5
2015-Jun-30 07:32N 49°29' E 000°12'0 0.0
2015-Jun-30 06:32N 49°29' E 000°12'0 0.0
2015-Jun-30 05:32N 49°29' E 000°12'0 0.0
2015-Jun-30 04:32N 49°29' E 000°12'0 0.0
2015-Jun-30 03:32N 49°29' E 000°12'0 0.0
2015-Jun-30 02:32N 49°29' E 000°12'0 0.0
2015-Jun-30 01:32N 49°29' E 000°12'0 0.0
2015-Jun-30 00:32N 49°29' E 000°12'0 0.0
2015-Jun-29 23:32N 49°29' E 000°12'0 0.0
2015-Jun-29 22:32N 49°29' E 000°12'0 0.0
2015-Jun-29 21:32N 49°29' E 000°12'0 0.0
2015-Jun-29 20:32N 49°29' E 000°12'0 0.0
2015-Jun-29 19:32N 49°29' E 000°12'0 0.0
2015-Jun-29 18:32N 49°29' E 000°12'0 0.0
2015-Jun-29 17:32N 49°29' E 000°12'0 0.0
2015-Jun-29 16:32N 49°29' E 000°12'0 0.0
2015-Jun-29 15:32N 49°29' E 000°12'0 0.0
2015-Jun-29 14:29N 49°29' E 000°12'0 0.0
2015-Jun-29 13:32N 49°29' E 000°12'0 0.0
2015-Jun-29 12:29N 49°29' E 000°12'0 0.0
2015-Jun-29 11:32N 49°29' E 000°12'0 0.0
2015-Jun-29 10:29N 49°29' E 000°12'0 0.0
2015-Jun-29 09:32N 49°29' E 000°12'0 0.0
2015-Jun-29 08:32N 49°29' E 000°12'0 0.0
2015-Jun-29 07:32N 49°29' E 000°12'0 0.0
2015-Jun-29 06:32N 49°29' E 000°12'0 0.0
2015-Jun-29 05:32N 49°29' E 000°12'1 1.2
2015-Jun-29 04:33N 49°29' E 000°11'4 3.9
2015-Jun-29 03:33N 49°29' E 000°05'10 9.8
2015-Jun-29 02:33N 49°32' W 000°10'2 2.4
2015-Jun-29 01:33N 49°34' W 000°09'0 0.0
2015-Jun-29 00:33N 49°34' W 000°09'0 0.0
2015-Jun-28 23:33N 49°34' W 000°09'0 0.0
2015-Jun-28 22:33N 49°34' W 000°09'0 0.1
2015-Jun-28 21:33N 49°34' W 000°09'0 0.0
2015-Jun-28 20:33N 49°34' W 000°09'0 0.0
2015-Jun-28 19:33N 49°34' W 000°09'0 0.0
2015-Jun-28 18:33N 49°34' W 000°09'0 0.0
2015-Jun-28 17:33N 49°34' W 000°09'0 0.0
2015-Jun-28 16:33N 49°34' W 000°09'6 6.0
2015-Jun-28 15:33N 49°40' W 000°10'1111.3
2015-Jun-28 14:32N 49°52' W 000°11'46 9.2
2015-Jun-28 09:32N 50°33' E 000°21'1010.1
2015-Jun-28 08:31N 50°36' E 000°37'9 9.6
2015-Jun-28 07:33N 50°40' E 000°49'9 9.4
2015-Jun-28 06:33N 50°46' E 001°01'10 9.9
2015-Jun-28 05:33N 50°52' E 001°14'1111.0
2015-Jun-28 04:33N 50°60' E 001°26'1212.0
2015-Jun-28 03:33N 51°08' E 001°39'1111.3
2015-Jun-28 02:33N 51°17' E 001°50'1010.3
2015-Jun-28 01:33N 51°26' E 001°59'10 8.3
2015-Jun-28 00:21N 51°34' E 002°09'65 8.3
2015-Jun-27 16:33N 52°06' E 003°39'1010.3
2015-Jun-27 15:33N 52°03' E 003°55'10 9.8
2015-Jun-27 14:33N 51°57' E 004°08'2 1.5
2015-Jun-27 13:28N 51°56' E 004°10'0 0.0
2015-Jun-27 12:31N 51°56' E 004°10'0 0.0
2015-Jun-27 11:31N 51°56' E 004°10'0 0.0
2015-Jun-27 10:31N 51°56' E 004°10'0 0.0
2015-Jun-27 09:31N 51°56' E 004°10'0 0.0
2015-Jun-27 08:31N 51°56' E 004°10'0 0.0
2015-Jun-27 07:16N 51°56' E 004°10'0 0.0
2015-Jun-27 06:31N 51°56' E 004°10'0 0.0
2015-Jun-27 05:28N 51°56' E 004°10'0 0.0
2015-Jun-27 04:31N 51°56' E 004°10'0 0.0
2015-Jun-27 03:31N 51°56' E 004°10'0 0.0
2015-Jun-27 02:31N 51°56' E 004°10'0 0.0
2015-Jun-27 01:31N 51°56' E 004°10'0 0.0
2015-Jun-27 00:31N 51°56' E 004°10'0 0.0
2015-Jun-26 23:31N 51°56' E 004°10'0 0.0
2015-Jun-26 22:31N 51°56' E 004°10'0 0.0
2015-Jun-26 21:28N 51°56' E 004°10'0 0.0
2015-Jun-26 20:31N 51°56' E 004°10'0 0.0
2015-Jun-26 19:31N 51°56' E 004°10'0 0.0
2015-Jun-26 18:31N 51°56' E 004°10'0 0.0
2015-Jun-26 17:28N 51°56' E 004°10'0 0.0
2015-Jun-26 16:22N 51°56' E 004°10'1 1.1
2015-Jun-26 15:34N 51°57' E 004°09'8 8.4
2015-Jun-26 14:34N 51°60' E 003°56'8 8.2
2015-Jun-26 13:34N 51°57' E 003°44'0 0.3
2015-Jun-26 12:31N 51°56' E 003°44'0 0.0
2015-Jun-26 11:31N 51°56' E 003°44'0 0.0
2015-Jun-26 10:25N 51°56' E 003°44'0 0.0
2015-Jun-26 09:25N 51°56' E 003°44'0 0.0
2015-Jun-26 08:28N 51°56' E 003°44'0 0.0
2015-Jun-26 07:16N 51°56' E 003°44'0 0.0
2015-Jun-26 06:13N 51°56' E 003°44'0 0.1
2015-Jun-26 05:28N 51°56' E 003°44'0 0.0
2015-Jun-26 04:31N 51°56' E 003°44'0 0.0
2015-Jun-26 03:31N 51°56' E 003°44'0 0.0
2015-Jun-26 02:31N 51°56' E 003°44'0 0.0
2015-Jun-26 01:31N 51°56' E 003°44'0 0.1
2015-Jun-26 00:28N 51°56' E 003°44'0 0.0
2015-Jun-25 23:28N 51°56' E 003°44'0 0.0
2015-Jun-25 22:22N 51°56' E 003°44'0 0.0
2015-Jun-25 21:28N 51°56' E 003°44'0 0.0
2015-Jun-25 20:31N 51°56' E 003°44'0 0.0
2015-Jun-25 19:28N 51°56' E 003°44'0 0.0
2015-Jun-25 18:22N 51°56' E 003°44'0 0.1
2015-Jun-25 17:04N 51°56' E 003°44'0 0.0
2015-Jun-25 16:31N 51°56' E 003°44'0 0.0
2015-Jun-25 15:28N 51°56' E 003°44'0 0.0
2015-Jun-25 14:31N 51°56' E 003°44'0 0.0
2015-Jun-25 13:28N 51°56' E 003°44'0 0.1
2015-Jun-25 12:28N 51°56' E 003°44'0 0.0
2015-Jun-25 06:22N 51°56' E 003°44'0 0.0
2015-Jun-25 04:31N 51°56' E 003°44'0 0.0
2015-Jun-25 03:22N 51°56' E 003°44'6 6.8
2015-Jun-25 02:28N 51°56' E 003°34'8 8.3
2015-Jun-25 01:32N 51°53' E 003°22'18 9.2
2015-Jun-24 23:31N 51°35' E 003°24'1111.5
2015-Jun-24 22:34N 51°26' E 003°35'1212.0
2015-Jun-24 21:33N 51°23' E 003°54'11 9.0
2015-Jun-24 20:21N 51°23' E 004°12'4 4.2
2015-Jun-24 19:19N 51°21' E 004°17'0 0.4
2015-Jun-24 18:29N 51°21' E 004°18'6 6.2
2015-Jun-24 17:32N 51°15' E 004°22'0 0.1
2015-Jun-24 16:30N 51°15' E 004°22'0 0.0
2015-Jun-24 15:33N 51°15' E 004°22'0 0.0
2015-Jun-24 14:33N 51°15' E 004°22'0 0.0
2015-Jun-24 13:33N 51°15' E 004°22'0 0.0
2015-Jun-24 12:33N 51°15' E 004°22'0 0.0
2015-Jun-24 11:33N 51°15' E 004°22'0 0.0
2015-Jun-24 10:33N 51°15' E 004°22'0 0.0
2015-Jun-24 09:33N 51°15' E 004°22'0 0.0
2015-Jun-24 08:33N 51°15' E 004°22'0 0.0
2015-Jun-24 07:33N 51°15' E 004°22'0 0.0
2015-Jun-24 06:33N 51°15' E 004°22'0 0.0
2015-Jun-24 05:33N 51°15' E 004°22'0 0.0
2015-Jun-24 04:33N 51°15' E 004°22'0 0.0
2015-Jun-24 03:33N 51°15' E 004°22'0 0.0
2015-Jun-24 02:33N 51°15' E 004°22'0 0.0
2015-Jun-24 01:33N 51°15' E 004°22'0 0.0
2015-Jun-24 00:33N 51°15' E 004°22'0 0.0
2015-Jun-23 23:33N 51°15' E 004°22'0 0.0
2015-Jun-23 22:33N 51°15' E 004°22'0 0.0
2015-Jun-23 21:33N 51°15' E 004°22'0 0.0
2015-Jun-23 20:33N 51°15' E 004°22'0 0.0
2015-Jun-23 19:30N 51°15' E 004°22'0 0.0
2015-Jun-23 19:00N 51°15' E 004°22'136 3.9
2015-Jun-22 08:18N 53°31' E 004°47'8 8.9
2015-Jun-22 07:20N 53°34' E 005°00'8 9.8
2015-Jun-22 06:33N 53°36' E 005°12'1010.5
2015-Jun-22 05:33N 53°40' E 005°29'1110.8
2015-Jun-22 04:33N 53°43' E 005°46'57 9.2
2015-Jun-21 22:26N 53°58' E 007°19'8 9.2
2015-Jun-21 21:33N 54°00' E 007°32'10 9.8
2015-Jun-21 20:33N 54°02' E 007°48'1110.6
2015-Jun-21 19:33N 54°01' E 008°06'1211.6
2015-Jun-21 18:33N 53°59' E 008°26'1212.1
2015-Jun-21 17:33N 53°53' E 008°43'9 9.5
2015-Jun-21 16:33N 53°51' E 008°59'6 6.1
2015-Jun-21 15:33N 53°54' E 009°09'1 1.2
2015-Jun-21 14:33N 53°54' E 009°10'8 7.9
2015-Jun-21 13:33N 54°01' E 009°18'17 5.2
2015-Jun-21 10:24N 54°14' E 009°36'6 7.6
2015-Jun-21 09:33N 54°19' E 009°43'7 7.1
2015-Jun-21 08:33N 54°21' E 009°54'8 8.0
2015-Jun-21 07:33N 54°22' E 010°08'1 1.2
2015-Jun-21 06:33N 54°22' E 010°10'3 3.0
2015-Jun-21 05:33N 54°24' E 010°12'10 9.7
2015-Jun-21 04:33N 54°32' E 010°23'10 9.9
2015-Jun-21 03:32N 54°35' E 010°40'19 9.6
2015-Jun-21 01:33N 54°35' E 011°12'10 9.7
2015-Jun-21 00:33N 54°31' E 011°27'10 9.6
2015-Jun-20 23:33N 54°28' E 011°43'9 9.5
2015-Jun-20 22:33N 54°27' E 011°59'  

Dump ship's entire track history